Terminal Aerodrome Forecast
Issued by NWS Cleveland, OH

Home | Current Version | Previous Version | Text Only | Print | Product List | Glossary On
Versions: 1 2 3 4 5 6 7 8 9 10 11 12 13 14 15 16 17 18 19 20 21 22 23 24 25
000
FTUS41 KCLE 252300
TAFCAK
TAF
KCAK 252325Z 2600/2624 05012KT 1SM -SN BR SCT008 OVC015
      TEMPO 2600/2604 1/2SM SN FZFG OVC008
     FM260400 04012KT 1 1/2SM -SN BR OVC012
      TEMPO 2604/2608 3/4SM -SN BR OVC006
     FM260800 04012KT 2SM -SN BR OVC008
      TEMPO 2614/2616 4SM -SN BR OVC015
     FM261800 01010KT 5SM -SN OVC015
     FM262200 34010KT 6SM -SN OVC025=

USA.gov is the U.S. government's official web portal to all federal, state and local government web resources and services.